sensor_id;sensor_type;location;lat;lon;timestamp;P1;durP1;ratioP1;P2;durP2;ratioP2
357;SDS011;167;47.558;7.602;2023-04-03T00:02:09;6.17;;;5.77;;
357;SDS011;167;47.558;7.602;2023-04-03T00:04:35;5.57;;;5.17;;
357;SDS011;167;47.558;7.602;2023-04-03T00:07:01;6.10;;;5.70;;
357;SDS011;167;47.558;7.602;2023-04-03T00:09:27;6.27;;;5.77;;
357;SDS011;167;47.558;7.602;2023-04-03T00:11:53;6.47;;;6.07;;
357;SDS011;167;47.558;7.602;2023-04-03T00:14:19;6.30;;;5.80;;
357;SDS011;167;47.558;7.602;2023-04-03T00:16:44;6.47;;;5.97;;
357;SDS011;167;47.558;7.602;2023-04-03T00:19:10;6.00;;;5.50;;
357;SDS011;167;47.558;7.602;2023-04-03T00:21:37;6.90;;;5.30;;
357;SDS011;167;47.558;7.602;2023-04-03T00:24:03;5.13;;;4.83;;
357;SDS011;167;47.558;7.602;2023-04-03T00:26:29;6.27;;;5.83;;
357;SDS011;167;47.558;7.602;2023-04-03T00:28:55;5.03;;;4.63;;
357;SDS011;167;47.558;7.602;2023-04-03T00:31:21;5.57;;;5.17;;
357;SDS011;167;47.558;7.602;2023-04-03T00:33:47;5.33;;;4.97;;
357;SDS011;167;47.558;7.602;2023-04-03T00:36:13;4.40;;;4.10;;
357;SDS011;167;47.558;7.602;2023-04-03T00:38:40;4.80;;;4.43;;
357;SDS011;167;47.558;7.602;2023-04-03T00:41:06;4.20;;;3.90;;
357;SDS011;167;47.558;7.602;2023-04-03T00:43:32;4.27;;;3.70;;
357;SDS011;167;47.558;7.602;2023-04-03T00:45:58;6.20;;;3.50;;
357;SDS011;167;47.558;7.602;2023-04-03T00:48:26;3.50;;;3.30;;
357;SDS011;167;47.558;7.602;2023-04-03T00:50:53;3.40;;;3.20;;
357;SDS011;167;47.558;7.602;2023-04-03T00:53:22;3.53;;;3.33;;
357;SDS011;167;47.558;7.602;2023-04-03T00:55:50;3.57;;;3.27;;
357;SDS011;167;47.558;7.602;2023-04-03T00:58:17;3.87;;;3.67;;
357;SDS011;167;47.558;7.602;2023-04-03T01:00:44;3.37;;;3.17;;
357;SDS011;167;47.558;7.602;2023-04-03T01:03:12;3.50;;;3.20;;
357;SDS011;167;47.558;7.602;2023-04-03T01:05:38;3.57;;;3.37;;
357;SDS011;167;47.558;7.602;2023-04-03T01:08:04;3.80;;;3.50;;
357;SDS011;167;47.558;7.602;2023-04-03T01:10:31;3.20;;;3.00;;
357;SDS011;167;47.558;7.602;2023-04-03T01:12:57;3.07;;;2.87;;
357;SDS011;167;47.558;7.602;2023-04-03T01:15:24;4.40;;;3.33;;
357;SDS011;167;47.558;7.602;2023-04-03T01:17:52;3.77;;;3.47;;
357;SDS011;167;47.558;7.602;2023-04-03T01:25:35;3.37;;;3.17;;
357;SDS011;167;47.558;7.602;2023-04-03T01:28:02;3.30;;;3.10;;
357;SDS011;167;47.558;7.602;2023-04-03T01:30:30;3.67;;;3.37;;
357;SDS011;167;47.558;7.602;2023-04-03T01:32:57;3.83;;;3.60;;
357;SDS011;167;47.558;7.602;2023-04-03T01:35:23;4.23;;;3.93;;
357;SDS011;167;47.558;7.602;2023-04-03T01:37:49;3.63;;;3.40;;
357;SDS011;167;47.558;7.602;2023-04-03T01:40:15;3.50;;;3.30;;
357;SDS011;167;47.558;7.602;2023-04-03T01:42:41;2.97;;;2.80;;
357;SDS011;167;47.558;7.602;2023-04-03T01:45:07;3.53;;;3.30;;
357;SDS011;167;47.558;7.602;2023-04-03T01:47:33;3.60;;;3.30;;
357;SDS011;167;47.558;7.602;2023-04-03T01:49:59;2.93;;;2.70;;
357;SDS011;167;47.558;7.602;2023-04-03T01:52:25;3.90;;;3.60;;
357;SDS011;167;47.558;7.602;2023-04-03T01:54:51;2.97;;;2.77;;
357;SDS011;167;47.558;7.602;2023-04-03T01:57:17;3.30;;;3.20;;
357;SDS011;167;47.558;7.602;2023-04-03T01:59:43;3.67;;;3.37;;
357;SDS011;167;47.558;7.602;2023-04-03T02:02:09;4.33;;;4.03;;
357;SDS011;167;47.558;7.602;2023-04-03T02:04:37;3.53;;;3.30;;
357;SDS011;167;47.558;7.602;2023-04-03T02:07:03;2.87;;;2.67;;
357;SDS011;167;47.558;7.602;2023-04-03T02:09:29;2.90;;;2.80;;
357;SDS011;167;47.558;7.602;2023-04-03T02:11:55;3.23;;;3.03;;
357;SDS011;167;47.558;7.602;2023-04-03T02:14:21;3.47;;;3.30;;
357;SDS011;167;47.558;7.602;2023-04-03T02:16:48;4.20;;;3.90;;
357;SDS011;167;47.558;7.602;2023-04-03T02:19:14;3.67;;;3.30;;
357;SDS011;167;47.558;7.602;2023-04-03T02:21:40;2.87;;;2.67;;
357;SDS011;167;47.558;7.602;2023-04-03T02:24:06;3.10;;;2.80;;
357;SDS011;167;47.558;7.602;2023-04-03T02:26:32;3.57;;;3.37;;
357;SDS011;167;47.558;7.602;2023-04-03T02:28:58;2.73;;;2.60;;
357;SDS011;167;47.558;7.602;2023-04-03T02:31:24;2.97;;;2.77;;
357;SDS011;167;47.558;7.602;2023-04-03T02:33:50;3.33;;;3.13;;
357;SDS011;167;47.558;7.602;2023-04-03T02:36:16;3.23;;;3.03;;
357;SDS011;167;47.558;7.602;2023-04-03T02:38:42;3.17;;;2.97;;
357;SDS011;167;47.558;7.602;2023-04-03T02:41:09;3.00;;;2.80;;
357;SDS011;167;47.558;7.602;2023-04-03T02:43:35;2.90;;;2.40;;
357;SDS011;167;47.558;7.602;2023-04-03T02:46:01;2.80;;;2.70;;
357;SDS011;167;47.558;7.602;2023-04-03T02:48:28;2.50;;;2.40;;
357;SDS011;167;47.558;7.602;2023-04-03T02:50:54;3.13;;;2.93;;
357;SDS011;167;47.558;7.602;2023-04-03T02:53:20;2.57;;;2.47;;
357;SDS011;167;47.558;7.602;2023-04-03T02:55:46;3.30;;;3.10;;
357;SDS011;167;47.558;7.602;2023-04-03T02:58:12;2.80;;;2.60;;
357;SDS011;167;47.558;7.602;2023-04-03T03:00:38;3.33;;;3.13;;
357;SDS011;167;47.558;7.602;2023-04-03T03:03:04;2.60;;;2.40;;
357;SDS011;167;47.558;7.602;2023-04-03T03:05:30;3.33;;;3.13;;
357;SDS011;167;47.558;7.602;2023-04-03T03:07:56;3.30;;;3.10;;
357;SDS011;167;47.558;7.602;2023-04-03T03:10:22;2.57;;;2.47;;
357;SDS011;167;47.558;7.602;2023-04-03T03:12:48;4.73;;;2.70;;
357;SDS011;167;47.558;7.602;2023-04-03T03:15:14;2.40;;;2.30;;
357;SDS011;167;47.558;7.602;2023-04-03T03:17:42;2.27;;;2.17;;
357;SDS011;167;47.558;7.602;2023-04-03T03:20:08;2.17;;;2.07;;
357;SDS011;167;47.558;7.602;2023-04-03T03:22:34;3.17;;;2.87;;
357;SDS011;167;47.558;7.602;2023-04-03T03:25:00;3.70;;;3.37;;
357;SDS011;167;47.558;7.602;2023-04-03T03:27:27;5.80;;;3.37;;
357;SDS011;167;47.558;7.602;2023-04-03T03:29:53;2.77;;;2.57;;
357;SDS011;167;47.558;7.602;2023-04-03T03:32:19;3.10;;;2.90;;
357;SDS011;167;47.558;7.602;2023-04-03T03:34:45;6.73;;;2.63;;
357;SDS011;167;47.558;7.602;2023-04-03T03:37:11;2.67;;;2.47;;
357;SDS011;167;47.558;7.602;2023-04-03T03:39:37;2.23;;;2.13;;
357;SDS011;167;47.558;7.602;2023-04-03T03:42:03;3.03;;;2.83;;
357;SDS011;167;47.558;7.602;2023-04-03T03:44:29;2.77;;;2.50;;
357;SDS011;167;47.558;7.602;2023-04-03T03:46:55;4.07;;;2.80;;
357;SDS011;167;47.558;7.602;2023-04-03T03:49:21;2.43;;;2.33;;
357;SDS011;167;47.558;7.602;2023-04-03T03:51:47;2.43;;;2.33;;
357;SDS011;167;47.558;7.602;2023-04-03T03:54:13;2.80;;;2.40;;
357;SDS011;167;47.558;7.602;2023-04-03T03:56:39;3.00;;;2.70;;
357;SDS011;167;47.558;7.602;2023-04-03T03:59:05;2.60;;;2.40;;
357;SDS011;167;47.558;7.602;2023-04-03T04:01:31;2.40;;;2.30;;
357;SDS011;167;47.558;7.602;2023-04-03T04:03:57;3.90;;;3.03;;
357;SDS011;167;47.558;7.602;2023-04-03T04:06:23;2.60;;;2.50;;
357;SDS011;167;47.558;7.602;2023-04-03T04:08:50;2.37;;;2.20;;
357;SDS011;167;47.558;7.602;2023-04-03T04:11:16;2.70;;;2.60;;
357;SDS011;167;47.558;7.602;2023-04-03T04:13:42;2.70;;;2.50;;
357;SDS011;167;47.558;7.602;2023-04-03T04:16:07;2.97;;;2.70;;
357;SDS011;167;47.558;7.602;2023-04-03T04:18:34;2.60;;;2.40;;
357;SDS011;167;47.558;7.602;2023-04-03T04:21:00;2.37;;;2.27;;
357;SDS011;167;47.558;7.602;2023-04-03T04:23:26;2.90;;;2.70;;
357;SDS011;167;47.558;7.602;2023-04-03T04:25:52;2.77;;;2.57;;
357;SDS011;167;47.558;7.602;2023-04-03T04:28:18;3.03;;;2.83;;
357;SDS011;167;47.558;7.602;2023-04-03T04:30:44;2.83;;;2.40;;
357;SDS011;167;47.558;7.602;2023-04-03T04:33:10;2.50;;;2.40;;
357;SDS011;167;47.558;7.602;2023-04-03T04:35:36;2.60;;;2.40;;
357;SDS011;167;47.558;7.602;2023-04-03T04:38:02;2.60;;;2.40;;
357;SDS011;167;47.558;7.602;2023-04-03T04:40:28;3.07;;;2.57;;
357;SDS011;167;47.558;7.602;2023-04-03T04:42:54;2.90;;;2.70;;
357;SDS011;167;47.558;7.602;2023-04-03T04:45:20;2.93;;;2.63;;
357;SDS011;167;47.558;7.602;2023-04-03T04:47:46;2.57;;;2.30;;
357;SDS011;167;47.558;7.602;2023-04-03T04:50:12;2.30;;;2.20;;
357;SDS011;167;47.558;7.602;2023-04-03T04:52:38;2.73;;;2.50;;
357;SDS011;167;47.558;7.602;2023-04-03T04:55:04;2.43;;;2.30;;
357;SDS011;167;47.558;7.602;2023-04-03T04:57:30;2.37;;;2.27;;
357;SDS011;167;47.558;7.602;2023-04-03T04:59:56;2.57;;;2.30;;
357;SDS011;167;47.558;7.602;2023-04-03T05:02:22;4.90;;;2.20;;
357;SDS011;167;47.558;7.602;2023-04-03T05:04:48;2.40;;;2.30;;
357;SDS011;167;47.558;7.602;2023-04-03T05:07:15;2.70;;;2.50;;
357;SDS011;167;47.558;7.602;2023-04-03T05:09:41;2.70;;;2.50;;
357;SDS011;167;47.558;7.602;2023-04-03T05:12:08;2.00;;;1.90;;
357;SDS011;167;47.558;7.602;2023-04-03T05:14:34;3.63;;;2.50;;
357;SDS011;167;47.558;7.602;2023-04-03T05:17:00;2.63;;;2.53;;
357;SDS011;167;47.558;7.602;2023-04-03T05:19:26;2.23;;;2.13;;
357;SDS011;167;47.558;7.602;2023-04-03T05:21:52;3.13;;;2.40;;
357;SDS011;167;47.558;7.602;2023-04-03T05:24:18;3.00;;;2.47;;
357;SDS011;167;47.558;7.602;2023-04-03T05:26:44;2.30;;;2.20;;
357;SDS011;167;47.558;7.602;2023-04-03T05:29:10;2.20;;;2.10;;
357;SDS011;167;47.558;7.602;2023-04-03T05:31:36;2.57;;;2.37;;
357;SDS011;167;47.558;7.602;2023-04-03T05:34:02;2.97;;;2.77;;
357;SDS011;167;47.558;7.602;2023-04-03T05:36:28;2.80;;;2.60;;
357;SDS011;167;47.558;7.602;2023-04-03T05:38:54;2.80;;;2.10;;
357;SDS011;167;47.558;7.602;2023-04-03T05:41:21;2.53;;;2.23;;
357;SDS011;167;47.558;7.602;2023-04-03T05:43:47;3.10;;;2.50;;
357;SDS011;167;47.558;7.602;2023-04-03T05:46:15;2.50;;;2.40;;
357;SDS011;167;47.558;7.602;2023-04-03T05:48:41;2.60;;;2.17;;
357;SDS011;167;47.558;7.602;2023-04-03T05:51:09;2.97;;;2.70;;
357;SDS011;167;47.558;7.602;2023-04-03T05:53:38;2.73;;;2.50;;
357;SDS011;167;47.558;7.602;2023-04-03T05:56:04;2.70;;;2.50;;
357;SDS011;167;47.558;7.602;2023-04-03T05:58:30;2.90;;;2.43;;
357;SDS011;167;47.558;7.602;2023-04-03T06:00:56;3.20;;;3.00;;
357;SDS011;167;47.558;7.602;2023-04-03T06:03:22;2.73;;;2.63;;
357;SDS011;167;47.558;7.602;2023-04-03T06:05:48;2.93;;;2.70;;
357;SDS011;167;47.558;7.602;2023-04-03T06:08:15;2.73;;;2.53;;
357;SDS011;167;47.558;7.602;2023-04-03T06:10:41;2.30;;;2.20;;
357;SDS011;167;47.558;7.602;2023-04-03T06:13:07;2.70;;;2.60;;
357;SDS011;167;47.558;7.602;2023-04-03T06:15:33;2.60;;;2.50;;
357;SDS011;167;47.558;7.602;2023-04-03T06:17:59;2.73;;;2.60;;
357;SDS011;167;47.558;7.602;2023-04-03T06:20:25;3.00;;;2.67;;
357;SDS011;167;47.558;7.602;2023-04-03T06:22:51;3.33;;;3.20;;
357;SDS011;167;47.558;7.602;2023-04-03T06:25:17;3.67;;;2.90;;
357;SDS011;167;47.558;7.602;2023-04-03T06:27:44;2.63;;;2.43;;
357;SDS011;167;47.558;7.602;2023-04-03T06:30:10;2.80;;;2.67;;
357;SDS011;167;47.558;7.602;2023-04-03T06:32:36;2.90;;;2.73;;
357;SDS011;167;47.558;7.602;2023-04-03T06:35:03;2.77;;;2.57;;
357;SDS011;167;47.558;7.602;2023-04-03T06:37:29;3.90;;;2.93;;
357;SDS011;167;47.558;7.602;2023-04-03T06:39:55;3.90;;;3.60;;
357;SDS011;167;47.558;7.602;2023-04-03T06:42:22;4.40;;;3.50;;
357;SDS011;167;47.558;7.602;2023-04-03T06:44:48;3.87;;;3.57;;
357;SDS011;167;47.558;7.602;2023-04-03T06:47:14;3.53;;;3.23;;
357;SDS011;167;47.558;7.602;2023-04-03T06:49:41;3.70;;;3.40;;
357;SDS011;167;47.558;7.602;2023-04-03T06:52:07;3.60;;;3.30;;
357;SDS011;167;47.558;7.602;2023-04-03T06:54:33;3.13;;;2.93;;
357;SDS011;167;47.558;7.602;2023-04-03T06:56:59;3.37;;;3.10;;
357;SDS011;167;47.558;7.602;2023-04-03T06:59:26;3.10;;;3.00;;
357;SDS011;167;47.558;7.602;2023-04-03T07:01:52;3.10;;;2.90;;
357;SDS011;167;47.558;7.602;2023-04-03T07:04:18;2.60;;;2.50;;
357;SDS011;167;47.558;7.602;2023-04-03T07:06:45;3.53;;;3.30;;
357;SDS011;167;47.558;7.602;2023-04-03T07:09:11;3.57;;;3.37;;
357;SDS011;167;47.558;7.602;2023-04-03T07:11:37;3.20;;;3.10;;
357;SDS011;167;47.558;7.602;2023-04-03T07:14:03;3.73;;;3.50;;
357;SDS011;167;47.558;7.602;2023-04-03T07:16:31;4.37;;;4.10;;
357;SDS011;167;47.558;7.602;2023-04-03T07:18:57;3.87;;;3.57;;
357;SDS011;167;47.558;7.602;2023-04-03T07:21:23;3.40;;;3.20;;
357;SDS011;167;47.558;7.602;2023-04-03T07:23:49;3.40;;;3.20;;
357;SDS011;167;47.558;7.602;2023-04-03T07:26:15;4.10;;;3.80;;
357;SDS011;167;47.558;7.602;2023-04-03T07:28:41;3.73;;;3.43;;
357;SDS011;167;47.558;7.602;2023-04-03T07:31:11;3.83;;;3.63;;
357;SDS011;167;47.558;7.602;2023-04-03T07:33:41;4.43;;;4.17;;
357;SDS011;167;47.558;7.602;2023-04-03T07:36:08;4.27;;;3.97;;
357;SDS011;167;47.558;7.602;2023-04-03T07:38:34;6.43;;;3.70;;
357;SDS011;167;47.558;7.602;2023-04-03T07:41:01;4.43;;;4.13;;
357;SDS011;167;47.558;7.602;2023-04-03T07:43:27;3.60;;;3.40;;
357;SDS011;167;47.558;7.602;2023-04-03T07:45:53;3.80;;;3.60;;
357;SDS011;167;47.558;7.602;2023-04-03T07:48:20;3.70;;;3.50;;
357;SDS011;167;47.558;7.602;2023-04-03T07:50:46;3.53;;;3.23;;
357;SDS011;167;47.558;7.602;2023-04-03T07:53:12;3.60;;;3.40;;
357;SDS011;167;47.558;7.602;2023-04-03T07:55:38;4.07;;;3.87;;
357;SDS011;167;47.558;7.602;2023-04-03T07:58:11;3.80;;;3.60;;
357;SDS011;167;47.558;7.602;2023-04-03T08:00:38;3.27;;;3.07;;
357;SDS011;167;47.558;7.602;2023-04-03T08:03:04;4.07;;;3.77;;
357;SDS011;167;47.558;7.602;2023-04-03T08:05:31;3.50;;;3.30;;
357;SDS011;167;47.558;7.602;2023-04-03T08:08:01;3.80;;;3.50;;
357;SDS011;167;47.558;7.602;2023-04-03T08:10:29;3.23;;;3.03;;
357;SDS011;167;47.558;7.602;2023-04-03T08:12:55;4.00;;;3.70;;
357;SDS011;167;47.558;7.602;2023-04-03T08:15:21;3.40;;;3.20;;
357;SDS011;167;47.558;7.602;2023-04-03T08:17:47;3.43;;;3.23;;
357;SDS011;167;47.558;7.602;2023-04-03T08:20:13;3.23;;;3.00;;
357;SDS011;167;47.558;7.602;2023-04-03T08:22:39;3.10;;;2.67;;
357;SDS011;167;47.558;7.602;2023-04-03T08:25:05;2.60;;;2.47;;
357;SDS011;167;47.558;7.602;2023-04-03T08:27:31;3.33;;;3.13;;
357;SDS011;167;47.558;7.602;2023-04-03T08:29:57;2.70;;;2.60;;
357;SDS011;167;47.558;7.602;2023-04-03T08:32:23;3.20;;;3.00;;
357;SDS011;167;47.558;7.602;2023-04-03T08:34:50;4.50;;;3.50;;
357;SDS011;167;47.558;7.602;2023-04-03T08:37:16;3.40;;;3.20;;
357;SDS011;167;47.558;7.602;2023-04-03T08:39:42;3.40;;;3.10;;
357;SDS011;167;47.558;7.602;2023-04-03T08:42:16;3.13;;;2.93;;
357;SDS011;167;47.558;7.602;2023-04-03T08:44:56;2.80;;;2.60;;
357;SDS011;167;47.558;7.602;2023-04-03T08:47:24;2.20;;;2.10;;
357;SDS011;167;47.558;7.602;2023-04-03T08:52:20;2.70;;;2.60;;
357;SDS011;167;47.558;7.602;2023-04-03T08:54:49;5.17;;;2.97;;
357;SDS011;167;47.558;7.602;2023-04-03T08:57:17;2.57;;;2.47;;
357;SDS011;167;47.558;7.602;2023-04-03T08:59:43;3.23;;;3.00;;
357;SDS011;167;47.558;7.602;2023-04-03T09:02:18;2.67;;;2.57;;
357;SDS011;167;47.558;7.602;2023-04-03T09:04:47;3.57;;;3.37;;
357;SDS011;167;47.558;7.602;2023-04-03T09:07:19;3.10;;;2.90;;
357;SDS011;167;47.558;7.602;2023-04-03T09:09:47;3.07;;;2.87;;
357;SDS011;167;47.558;7.602;2023-04-03T09:12:25;3.80;;;3.07;;
357;SDS011;167;47.558;7.602;2023-04-03T09:15:02;3.60;;;2.70;;
357;SDS011;167;47.558;7.602;2023-04-03T09:17:35;2.90;;;2.80;;
357;SDS011;167;47.558;7.602;2023-04-03T09:22:41;2.83;;;2.63;;
357;SDS011;167;47.558;7.602;2023-04-03T09:25:15;3.00;;;2.90;;
357;SDS011;167;47.558;7.602;2023-04-03T09:27:43;3.10;;;2.90;;
357;SDS011;167;47.558;7.602;2023-04-03T09:30:13;2.70;;;2.60;;
357;SDS011;167;47.558;7.602;2023-04-03T09:32:40;3.67;;;3.47;;
357;SDS011;167;47.558;7.602;2023-04-03T09:37:46;3.10;;;2.90;;
357;SDS011;167;47.558;7.602;2023-04-03T09:42:58;3.10;;;2.73;;
357;SDS011;167;47.558;7.602;2023-04-03T09:45:29;2.50;;;2.40;;
357;SDS011;167;47.558;7.602;2023-04-03T09:50:31;2.00;;;1.80;;
357;SDS011;167;47.558;7.602;2023-04-03T09:52:58;3.27;;;3.07;;
357;SDS011;167;47.558;7.602;2023-04-03T09:55:25;2.70;;;2.50;;
357;SDS011;167;47.558;7.602;2023-04-03T09:57:55;2.03;;;1.93;;
357;SDS011;167;47.558;7.602;2023-04-03T10:02:55;2.57;;;2.37;;
357;SDS011;167;47.558;7.602;2023-04-03T10:05:26;2.23;;;2.13;;
357;SDS011;167;47.558;7.602;2023-04-03T10:07:52;2.13;;;1.93;;
357;SDS011;167;47.558;7.602;2023-04-03T10:10:32;2.33;;;2.23;;
357;SDS011;167;47.558;7.602;2023-04-03T10:13:14;2.20;;;2.10;;
357;SDS011;167;47.558;7.602;2023-04-03T10:15:44;2.20;;;2.10;;
357;SDS011;167;47.558;7.602;2023-04-03T10:20:51;1.70;;;1.60;;
357;SDS011;167;47.558;7.602;2023-04-03T10:23:19;2.10;;;2.00;;
357;SDS011;167;47.558;7.602;2023-04-03T10:28:27;2.10;;;2.00;;
357;SDS011;167;47.558;7.602;2023-04-03T10:30:58;1.60;;;1.50;;
357;SDS011;167;47.558;7.602;2023-04-03T10:33:36;2.77;;;2.63;;
357;SDS011;167;47.558;7.602;2023-04-03T10:36:07;1.90;;;1.80;;
357;SDS011;167;47.558;7.602;2023-04-03T10:38:42;2.10;;;2.00;;
357;SDS011;167;47.558;7.602;2023-04-03T10:43:59;1.73;;;1.63;;
357;SDS011;167;47.558;7.602;2023-04-03T10:46:31;1.77;;;1.67;;
357;SDS011;167;47.558;7.602;2023-04-03T10:51:45;1.50;;;1.50;;
357;SDS011;167;47.558;7.602;2023-04-03T10:54:46;1.47;;;1.47;;
357;SDS011;167;47.558;7.602;2023-04-03T10:57:06;1.70;;;1.60;;
357;SDS011;167;47.558;7.602;2023-04-03T10:59:47;1.63;;;1.60;;
357;SDS011;167;47.558;7.602;2023-04-03T11:04:44;1.63;;;1.53;;
357;SDS011;167;47.558;7.602;2023-04-03T11:07:12;2.50;;;2.40;;
357;SDS011;167;47.558;7.602;2023-04-03T11:09:41;1.50;;;1.50;;
357;SDS011;167;47.558;7.602;2023-04-03T11:12:17;2.10;;;1.53;;
357;SDS011;167;47.558;7.602;2023-04-03T11:14:44;1.70;;;1.60;;
357;SDS011;167;47.558;7.602;2023-04-03T11:22:09;1.17;;;1.13;;
357;SDS011;167;47.558;7.602;2023-04-03T11:24:38;1.27;;;1.27;;
357;SDS011;167;47.558;7.602;2023-04-03T11:27:05;1.60;;;1.50;;
357;SDS011;167;47.558;7.602;2023-04-03T11:29:33;1.40;;;1.40;;
357;SDS011;167;47.558;7.602;2023-04-03T11:32:07;1.70;;;1.60;;
357;SDS011;167;47.558;7.602;2023-04-03T11:34:37;1.33;;;1.30;;
357;SDS011;167;47.558;7.602;2023-04-03T11:37:12;1.13;;;1.13;;
357;SDS011;167;47.558;7.602;2023-04-03T11:39:38;2.47;;;2.27;;
357;SDS011;167;47.558;7.602;2023-04-03T11:47:58;2.70;;;1.30;;
357;SDS011;167;47.558;7.602;2023-04-03T11:58:14;0.80;;;0.80;;
357;SDS011;167;47.558;7.602;2023-04-03T12:05:53;1.43;;;1.33;;
357;SDS011;167;47.558;7.602;2023-04-03T12:16:03;1.00;;;1.00;;
357;SDS011;167;47.558;7.602;2023-04-03T12:18:43;0.97;;;0.97;;
357;SDS011;167;47.558;7.602;2023-04-03T12:21:11;1.17;;;1.17;;
357;SDS011;167;47.558;7.602;2023-04-03T12:23:56;1.10;;;1.10;;
357;SDS011;167;47.558;7.602;2023-04-03T12:26:23;5.20;;;1.33;;
357;SDS011;167;47.558;7.602;2023-04-03T12:28:51;3.03;;;1.30;;
357;SDS011;167;47.558;7.602;2023-04-03T12:31:18;1.43;;;1.00;;
357;SDS011;167;47.558;7.602;2023-04-03T12:33:50;6.03;;;1.13;;
357;SDS011;167;47.558;7.602;2023-04-03T12:36:28;0.90;;;0.90;;
357;SDS011;167;47.558;7.602;2023-04-03T12:46:15;3.23;;;1.53;;
357;SDS011;167;47.558;7.602;2023-04-03T12:51:32;1.53;;;1.40;;
357;SDS011;167;47.558;7.602;2023-04-03T12:54:01;1.30;;;1.30;;
357;SDS011;167;47.558;7.602;2023-04-03T12:56:29;1.43;;;1.20;;
357;SDS011;167;47.558;7.602;2023-04-03T12:58:56;1.20;;;1.20;;
357;SDS011;167;47.558;7.602;2023-04-03T13:01:37;1.67;;;1.57;;
357;SDS011;167;47.558;7.602;2023-04-03T13:04:03;1.53;;;1.43;;
357;SDS011;167;47.558;7.602;2023-04-03T13:06:40;1.37;;;1.37;;
357;SDS011;167;47.558;7.602;2023-04-03T13:09:14;1.50;;;1.27;;
357;SDS011;167;47.558;7.602;2023-04-03T13:11:44;3.20;;;1.30;;
357;SDS011;167;47.558;7.602;2023-04-03T13:14:15;2.13;;;1.50;;
357;SDS011;167;47.558;7.602;2023-04-03T13:16:42;1.93;;;1.83;;
357;SDS011;167;47.558;7.602;2023-04-03T13:19:17;1.17;;;1.10;;
357;SDS011;167;47.558;7.602;2023-04-03T13:21:43;1.33;;;1.20;;
357;SDS011;167;47.558;7.602;2023-04-03T13:24:10;2.60;;;1.40;;
357;SDS011;167;47.558;7.602;2023-04-03T13:26:37;1.10;;;1.10;;
357;SDS011;167;47.558;7.602;2023-04-03T13:29:04;1.70;;;1.60;;
357;SDS011;167;47.558;7.602;2023-04-03T13:31:35;1.83;;;1.10;;
357;SDS011;167;47.558;7.602;2023-04-03T13:34:10;1.13;;;1.13;;
357;SDS011;167;47.558;7.602;2023-04-03T13:36:39;1.60;;;1.50;;
357;SDS011;167;47.558;7.602;2023-04-03T13:41:32;1.70;;;1.60;;
357;SDS011;167;47.558;7.602;2023-04-03T13:44:14;1.27;;;1.20;;
357;SDS011;167;47.558;7.602;2023-04-03T13:46:40;1.57;;;1.53;;
357;SDS011;167;47.558;7.602;2023-04-03T13:49:17;1.43;;;1.43;;
357;SDS011;167;47.558;7.602;2023-04-03T13:51:43;1.13;;;1.13;;
357;SDS011;167;47.558;7.602;2023-04-03T13:54:21;1.30;;;1.30;;
357;SDS011;167;47.558;7.602;2023-04-03T13:56:52;1.87;;;1.77;;
357;SDS011;167;47.558;7.602;2023-04-03T13:59:29;1.60;;;1.60;;
357;SDS011;167;47.558;7.602;2023-04-03T14:04:32;1.27;;;1.27;;
357;SDS011;167;47.558;7.602;2023-04-03T14:06:58;1.50;;;1.40;;
357;SDS011;167;47.558;7.602;2023-04-03T14:09:25;1.37;;;1.37;;
357;SDS011;167;47.558;7.602;2023-04-03T14:11:55;1.60;;;1.50;;
357;SDS011;167;47.558;7.602;2023-04-03T14:14:24;1.40;;;1.40;;
357;SDS011;167;47.558;7.602;2023-04-03T14:16:56;1.23;;;1.23;;
357;SDS011;167;47.558;7.602;2023-04-03T14:19:29;1.20;;;1.17;;
357;SDS011;167;47.558;7.602;2023-04-03T14:21:55;1.03;;;1.03;;
357;SDS011;167;47.558;7.602;2023-04-03T14:24:22;1.40;;;1.30;;
357;SDS011;167;47.558;7.602;2023-04-03T14:26:49;2.13;;;1.93;;
357;SDS011;167;47.558;7.602;2023-04-03T14:29:15;1.30;;;1.30;;
357;SDS011;167;47.558;7.602;2023-04-03T14:31:42;1.60;;;1.50;;
357;SDS011;167;47.558;7.602;2023-04-03T14:34:09;1.30;;;1.20;;
357;SDS011;167;47.558;7.602;2023-04-03T14:36:36;1.30;;;1.23;;
357;SDS011;167;47.558;7.602;2023-04-03T14:39:03;1.73;;;1.63;;
357;SDS011;167;47.558;7.602;2023-04-03T14:41:29;2.37;;;2.17;;
357;SDS011;167;47.558;7.602;2023-04-03T14:43:55;1.13;;;1.13;;
357;SDS011;167;47.558;7.602;2023-04-03T14:46:24;1.20;;;1.20;;
357;SDS011;167;47.558;7.602;2023-04-03T14:48:51;1.60;;;1.50;;
357;SDS011;167;47.558;7.602;2023-04-03T14:51:17;4.30;;;2.23;;
357;SDS011;167;47.558;7.602;2023-04-03T14:53:44;1.27;;;1.27;;
357;SDS011;167;47.558;7.602;2023-04-03T14:56:21;1.50;;;1.40;;
357;SDS011;167;47.558;7.602;2023-04-03T14:58:48;1.50;;;1.40;;
357;SDS011;167;47.558;7.602;2023-04-03T15:01:16;2.33;;;1.10;;
357;SDS011;167;47.558;7.602;2023-04-03T15:03:42;1.23;;;1.23;;
357;SDS011;167;47.558;7.602;2023-04-03T15:06:09;2.90;;;1.40;;
357;SDS011;167;47.558;7.602;2023-04-03T15:08:35;1.70;;;1.60;;
357;SDS011;167;47.558;7.602;2023-04-03T15:11:02;1.50;;;1.43;;
357;SDS011;167;47.558;7.602;2023-04-03T15:13:28;1.70;;;1.60;;
357;SDS011;167;47.558;7.602;2023-04-03T15:15:54;1.10;;;1.10;;
357;SDS011;167;47.558;7.602;2023-04-03T15:18:21;1.60;;;1.50;;
357;SDS011;167;47.558;7.602;2023-04-03T15:20:48;1.30;;;1.13;;
357;SDS011;167;47.558;7.602;2023-04-03T15:23:15;2.60;;;0.93;;
357;SDS011;167;47.558;7.602;2023-04-03T15:25:45;1.13;;;1.13;;
357;SDS011;167;47.558;7.602;2023-04-03T15:28:54;1.33;;;1.33;;
357;SDS011;167;47.558;7.602;2023-04-03T15:31:01;1.37;;;1.27;;
357;SDS011;167;47.558;7.602;2023-04-03T15:33:28;2.00;;;1.90;;
357;SDS011;167;47.558;7.602;2023-04-03T15:35:54;0.90;;;0.90;;
357;SDS011;167;47.558;7.602;2023-04-03T15:38:20;0.90;;;0.90;;
357;SDS011;167;47.558;7.602;2023-04-03T15:40:46;0.90;;;0.90;;
357;SDS011;167;47.558;7.602;2023-04-03T15:43:12;1.20;;;1.20;;
357;SDS011;167;47.558;7.602;2023-04-03T15:45:38;1.23;;;1.23;;
357;SDS011;167;47.558;7.602;2023-04-03T15:48:04;1.70;;;1.60;;
357;SDS011;167;47.558;7.602;2023-04-03T15:50:31;0.90;;;0.90;;
357;SDS011;167;47.558;7.602;2023-04-03T15:52:57;1.30;;;1.20;;
357;SDS011;167;47.558;7.602;2023-04-03T15:55:24;1.10;;;1.10;;
357;SDS011;167;47.558;7.602;2023-04-03T15:57:51;0.73;;;0.73;;
357;SDS011;167;47.558;7.602;2023-04-03T16:00:17;1.37;;;1.37;;
357;SDS011;167;47.558;7.602;2023-04-03T16:02:44;1.10;;;1.10;;
357;SDS011;167;47.558;7.602;2023-04-03T16:05:10;1.50;;;1.50;;
357;SDS011;167;47.558;7.602;2023-04-03T16:07:39;1.20;;;1.20;;
357;SDS011;167;47.558;7.602;2023-04-03T16:10:06;1.40;;;1.37;;
357;SDS011;167;47.558;7.602;2023-04-03T16:12:32;1.00;;;1.00;;
357;SDS011;167;47.558;7.602;2023-04-03T16:14:58;1.40;;;1.40;;
357;SDS011;167;47.558;7.602;2023-04-03T16:17:25;1.27;;;1.20;;
357;SDS011;167;47.558;7.602;2023-04-03T16:19:51;3.03;;;1.73;;
357;SDS011;167;47.558;7.602;2023-04-03T16:22:17;1.00;;;1.00;;
357;SDS011;167;47.558;7.602;2023-04-03T16:24:43;1.20;;;1.20;;
357;SDS011;167;47.558;7.602;2023-04-03T16:27:09;1.60;;;1.30;;
357;SDS011;167;47.558;7.602;2023-04-03T16:29:35;4.10;;;1.60;;
357;SDS011;167;47.558;7.602;2023-04-03T16:32:01;2.07;;;1.63;;
357;SDS011;167;47.558;7.602;2023-04-03T16:34:27;1.70;;;1.60;;
357;SDS011;167;47.558;7.602;2023-04-03T16:36:55;1.20;;;1.10;;
357;SDS011;167;47.558;7.602;2023-04-03T16:39:21;1.50;;;1.40;;
357;SDS011;167;47.558;7.602;2023-04-03T16:41:47;1.30;;;1.30;;
357;SDS011;167;47.558;7.602;2023-04-03T16:44:13;1.20;;;1.20;;
357;SDS011;167;47.558;7.602;2023-04-03T16:46:39;1.10;;;1.10;;
357;SDS011;167;47.558;7.602;2023-04-03T16:49:05;0.90;;;0.90;;
357;SDS011;167;47.558;7.602;2023-04-03T16:51:31;1.10;;;1.10;;
357;SDS011;167;47.558;7.602;2023-04-03T16:53:57;1.17;;;1.17;;
357;SDS011;167;47.558;7.602;2023-04-03T16:56:23;0.90;;;0.90;;
357;SDS011;167;47.558;7.602;2023-04-03T16:58:51;1.33;;;1.20;;
357;SDS011;167;47.558;7.602;2023-04-03T17:01:18;2.20;;;1.30;;
357;SDS011;167;47.558;7.602;2023-04-03T17:03:44;3.53;;;1.33;;
357;SDS011;167;47.558;7.602;2023-04-03T17:06:11;3.13;;;1.60;;
357;SDS011;167;47.558;7.602;2023-04-03T17:08:41;1.53;;;1.43;;